createdAt,value
2019-05-20T00:00:01.110Z,3.40
2019-05-20T00:02:28.637Z,4.07
2019-05-20T00:04:57.232Z,4.23
2019-05-20T00:07:23.978Z,3.47
2019-05-20T00:09:51.063Z,3.30
2019-05-20T00:12:17.834Z,3.77
2019-05-20T00:14:44.620Z,3.67
2019-05-20T00:17:11.340Z,3.67
2019-05-20T00:19:38.108Z,3.80
2019-05-20T00:22:04.802Z,3.80
2019-05-20T00:24:31.805Z,3.80
2019-05-20T00:26:58.604Z,3.30
2019-05-20T00:29:25.668Z,3.60
2019-05-20T00:31:53.436Z,3.93
2019-05-20T00:34:34.692Z,3.43
2019-05-20T00:36:52.148Z,4.10
2019-05-20T00:39:20.597Z,3.77
2019-05-20T00:41:47.554Z,4.53
2019-05-20T00:44:14.318Z,4.80
2019-05-20T00:46:41.144Z,4.83
2019-05-20T00:49:10.568Z,5.10
2019-05-20T00:51:37.394Z,4.97
2019-05-20T00:54:06.051Z,5.40
2019-05-20T00:56:32.814Z,5.70
2019-05-20T00:58:59.692Z,5.50
2019-05-20T01:01:26.449Z,5.63
2019-05-20T01:03:53.230Z,5.83
2019-05-20T01:06:19.981Z,5.73
2019-05-20T01:08:46.731Z,5.77
2019-05-20T01:11:13.560Z,5.80
2019-05-20T01:13:40.329Z,4.73
2019-05-20T01:16:07.080Z,4.47
2019-05-20T01:18:33.919Z,4.47
2019-05-20T01:21:00.759Z,4.33
2019-05-20T01:23:27.605Z,4.47
2019-05-20T01:25:54.544Z,4.87
2019-05-20T01:28:21.676Z,3.90
2019-05-20T01:30:48.478Z,4.00
2019-05-20T01:33:18.135Z,4.50
2019-05-20T01:35:44.896Z,4.03
2019-05-20T01:38:12.122Z,3.50
2019-05-20T01:40:38.884Z,3.80
2019-05-20T01:43:05.626Z,4.83
2019-05-20T01:45:32.458Z,3.80
2019-05-20T01:48:00.109Z,4.00
2019-05-20T01:50:26.984Z,3.80
2019-05-20T01:52:53.829Z,4.60
2019-05-20T01:55:20.586Z,4.07
2019-05-20T01:57:47.451Z,5.80
2019-05-20T02:00:14.204Z,6.03
2019-05-20T02:02:41.034Z,5.50
2019-05-20T02:05:08.387Z,6.03
2019-05-20T02:07:35.140Z,6.20
2019-05-20T02:10:01.944Z,6.20
2019-05-20T02:12:28.684Z,6.40
2019-05-20T02:15:01.543Z,5.30
2019-05-20T02:17:29.065Z,5.80
2019-05-20T02:19:55.796Z,5.63
2019-05-20T02:22:23.087Z,6.00
2019-05-20T02:24:50.448Z,6.80
2019-05-20T02:27:17.483Z,6.60
2019-05-20T02:29:44.433Z,6.73
2019-05-20T02:32:11.273Z,6.20
2019-05-20T02:34:38.408Z,5.93
2019-05-20T02:37:05.228Z,6.30
2019-05-20T02:39:31.942Z,6.00
2019-05-20T02:41:58.757Z,5.87
2019-05-20T02:44:25.494Z,6.60
2019-05-20T02:46:52.416Z,6.33
2019-05-20T02:49:19.275Z,5.50
2019-05-20T02:51:46.013Z,6.30
2019-05-20T02:54:12.765Z,6.80
2019-05-20T02:56:39.631Z,6.33
2019-05-20T02:59:06.395Z,6.70
2019-05-20T03:01:33.084Z,6.80
2019-05-20T03:04:10.955Z,6.30
2019-05-20T03:06:28.844Z,6.57
2019-05-20T03:08:55.564Z,6.30
2019-05-20T03:11:22.328Z,6.53
2019-05-20T03:13:50.311Z,6.30
2019-05-20T03:16:17.011Z,6.20
2019-05-20T03:18:44.171Z,6.90
2019-05-20T03:21:10.911Z,7.07
2019-05-20T03:23:37.653Z,8.03
2019-05-20T03:26:04.549Z,8.50
2019-05-20T03:28:31.645Z,8.60
2019-05-20T03:30:58.517Z,8.43
2019-05-20T03:33:25.382Z,7.70
2019-05-20T03:35:52.274Z,7.87
2019-05-20T03:38:18.994Z,7.60
2019-05-20T03:40:45.747Z,7.87
2019-05-20T03:43:12.915Z,7.23
2019-05-20T03:45:39.685Z,7.30
2019-05-20T03:48:06.833Z,7.60
2019-05-20T03:50:33.529Z,7.80
2019-05-20T03:53:00.310Z,7.27
2019-05-20T03:55:27.062Z,8.07
2019-05-20T03:57:53.785Z,7.80
2019-05-20T04:00:37.818Z,8.13
2019-05-20T04:03:04.540Z,7.30
2019-05-20T04:05:31.265Z,8.60
2019-05-20T04:07:58.067Z,8.93
2019-05-20T04:10:24.803Z,8.13
2019-05-20T04:12:51.519Z,7.73
2019-05-20T04:15:18.293Z,8.37
2019-05-20T04:17:45.388Z,8.50
2019-05-20T04:20:12.220Z,8.80
2019-05-20T04:22:39.334Z,9.40
2019-05-20T04:25:06.173Z,9.63
2019-05-20T04:27:32.937Z,8.93
2019-05-20T04:29:59.717Z,10.00
2019-05-20T04:32:26.506Z,9.20
2019-05-20T04:34:53.234Z,9.93
2019-05-20T04:37:19.966Z,10.13
2019-05-20T04:39:46.669Z,9.70
2019-05-20T04:42:13.718Z,10.17
2019-05-20T04:44:40.460Z,9.80
2019-05-20T04:47:07.561Z,10.93
2019-05-20T04:49:34.493Z,10.40
2019-05-20T04:52:01.586Z,11.17
2019-05-20T04:54:28.312Z,10.90
2019-05-20T04:56:55.529Z,11.60
2019-05-20T04:59:22.310Z,11.90
2019-05-20T05:01:49.118Z,12.47
2019-05-20T05:04:16.425Z,12.10
2019-05-20T05:06:43.175Z,12.67
2019-05-20T05:09:15.613Z,12.43
2019-05-20T05:11:41.155Z,12.33
2019-05-20T05:14:08.208Z,14.23
2019-05-20T05:16:36.462Z,12.43
2019-05-20T05:19:03.516Z,13.60
2019-05-20T05:21:30.578Z,12.63
2019-05-20T05:23:59.550Z,12.30
2019-05-20T05:26:26.932Z,14.00
2019-05-20T05:28:56.729Z,14.37
2019-05-20T05:31:26.246Z,14.53
2019-05-20T05:33:55.323Z,14.30
2019-05-20T05:36:22.081Z,15.70
2019-05-20T05:38:50.163Z,16.30
2019-05-20T05:41:17.295Z,16.40
2019-05-20T05:43:52.913Z,17.23
2019-05-20T05:46:19.816Z,17.90
2019-05-20T05:48:46.638Z,16.97
2019-05-20T05:51:13.412Z,18.70
2019-05-20T05:53:40.857Z,22.13
2019-05-20T05:56:07.979Z,20.63
2019-05-20T05:58:35.538Z,21.43
2019-05-20T06:01:02.384Z,20.90
2019-05-20T06:03:29.271Z,19.43
2019-05-20T06:06:10.685Z,19.83
2019-05-20T06:08:25.061Z,20.83
2019-05-20T06:10:51.840Z,19.93
2019-05-20T06:13:18.608Z,22.53
2019-05-20T06:15:45.468Z,22.90
2019-05-20T06:18:12.295Z,24.27
2019-05-20T06:20:40.904Z,23.30
2019-05-20T06:23:08.083Z,25.37
2019-05-20T06:25:34.801Z,24.07
2019-05-20T06:28:01.632Z,25.40
2019-05-20T06:30:40.300Z,25.27
2019-05-20T06:33:07.387Z,27.30
2019-05-20T06:35:36.858Z,28.03
2019-05-20T06:38:08.618Z,26.30
2019-05-20T06:40:36.524Z,27.90
2019-05-20T06:43:03.241Z,27.90
2019-05-20T06:45:31.136Z,27.43
2019-05-20T06:48:16.153Z,27.30
2019-05-20T06:50:43.816Z,29.20
2019-05-20T06:53:10.619Z,29.03
2019-05-20T06:55:40.543Z,28.60
2019-05-20T06:58:07.566Z,29.17
2019-05-20T07:00:40.323Z,29.13
2019-05-20T07:03:07.096Z,29.27
2019-05-20T07:05:33.903Z,29.00
2019-05-20T07:08:02.921Z,29.13
2019-05-20T07:10:30.205Z,27.83
2019-05-20T07:12:56.975Z,30.57
2019-05-20T07:15:23.973Z,28.90
2019-05-20T07:17:50.750Z,27.73
2019-05-20T07:20:17.878Z,31.03
2019-05-20T07:22:55.835Z,29.03
2019-05-20T07:25:15.481Z,29.40
2019-05-20T07:27:43.889Z,28.93
2019-05-20T07:30:15.048Z,28.10
2019-05-20T07:32:39.623Z,28.87
2019-05-20T07:35:06.461Z,31.30
2019-05-20T07:37:33.384Z,28.80
2019-05-20T07:40:01.877Z,28.67
2019-05-20T07:42:28.729Z,29.97
2019-05-20T07:44:55.512Z,30.90
2019-05-20T07:47:22.340Z,29.03
2019-05-20T07:49:49.279Z,29.47
2019-05-20T07:52:16.102Z,28.67
2019-05-20T07:54:43.090Z,30.10
2019-05-20T07:57:09.942Z,27.67
2019-05-20T07:59:39.402Z,28.30
2019-05-20T08:02:06.284Z,27.07
2019-05-20T08:04:33.445Z,27.53
2019-05-20T08:07:00.222Z,26.13
2019-05-20T08:09:27.080Z,25.43
2019-05-20T08:11:53.798Z,22.87
2019-05-20T08:14:21.169Z,25.53
2019-05-20T08:16:47.945Z,25.30
2019-05-20T08:19:14.677Z,25.03
2019-05-20T08:21:43.667Z,25.80
2019-05-20T08:24:10.415Z,24.07
2019-05-20T08:26:37.355Z,26.87
2019-05-20T08:29:05.594Z,25.80
2019-05-20T08:31:32.334Z,25.00
2019-05-20T08:33:59.156Z,25.17
2019-05-20T08:36:26.038Z,25.93
2019-05-20T08:38:52.788Z,24.57
2019-05-20T08:41:19.545Z,24.73
2019-05-20T08:43:46.755Z,27.17
2019-05-20T08:46:13.719Z,24.67
2019-05-20T08:48:40.490Z,24.87
2019-05-20T08:51:07.456Z,27.93
2019-05-20T08:53:34.153Z,26.07
2019-05-20T08:56:00.931Z,24.80
2019-05-20T08:58:27.962Z,24.17
2019-05-20T09:00:57.497Z,25.87
2019-05-20T09:03:24.374Z,25.57
2019-05-20T09:05:51.180Z,25.43
2019-05-20T09:08:18.147Z,25.00
2019-05-20T09:10:44.904Z,25.50
2019-05-20T09:13:11.639Z,24.53
2019-05-20T09:15:38.394Z,25.10
2019-05-20T09:18:05.182Z,25.50
2019-05-20T09:20:32.114Z,25.63
2019-05-20T09:23:02.534Z,26.17
2019-05-20T09:25:31.630Z,25.50
2019-05-20T09:27:59.237Z,25.70
2019-05-20T09:30:26.179Z,26.00
2019-05-20T09:32:52.946Z,25.10
2019-05-20T09:35:19.811Z,24.10
2019-05-20T09:37:46.628Z,24.60
2019-05-20T09:40:21.832Z,25.43
2019-05-20T09:42:48.661Z,24.03
2019-05-20T09:45:15.445Z,24.40
2019-05-20T09:47:42.744Z,23.87
2019-05-20T09:50:09.618Z,24.97
2019-05-20T09:52:36.395Z,24.80
2019-05-20T09:55:04.914Z,24.23
2019-05-20T09:57:31.717Z,24.50
2019-05-20T09:59:58.990Z,22.57
2019-05-20T10:02:36.116Z,24.50
2019-05-20T10:04:54.421Z,24.83
2019-05-20T10:07:21.858Z,24.63
2019-05-20T10:09:48.913Z,23.50
2019-05-20T10:12:15.976Z,22.20
2019-05-20T10:14:42.825Z,22.17
2019-05-20T10:17:09.906Z,22.87
2019-05-20T10:19:36.745Z,23.13
2019-05-20T10:22:03.545Z,23.10
2019-05-20T10:24:30.259Z,20.80
2019-05-20T10:26:57.170Z,22.80
2019-05-20T10:29:26.962Z,24.20
2019-05-20T10:31:54.390Z,24.50
2019-05-20T10:34:21.478Z,23.80
2019-05-20T10:36:48.182Z,22.87
2019-05-20T10:39:14.908Z,23.37
2019-05-20T10:41:41.826Z,21.87
2019-05-20T10:44:08.627Z,20.80
2019-05-20T10:46:35.770Z,21.83
2019-05-20T10:49:02.946Z,22.73
2019-05-20T10:51:29.898Z,21.10
2019-05-20T10:53:59.483Z,20.30
2019-05-20T10:56:26.210Z,19.53
2019-05-20T10:58:53.052Z,20.17
2019-05-20T11:01:19.794Z,21.60
2019-05-20T11:03:47.105Z,19.00
2019-05-20T11:06:13.894Z,19.90
2019-05-20T11:08:40.709Z,20.10
2019-05-20T11:11:13.849Z,18.83
2019-05-20T11:13:40.550Z,18.30
2019-05-20T11:16:21.427Z,18.83
2019-05-20T11:18:42.283Z,20.23
2019-05-20T11:21:09.011Z,18.83
2019-05-20T11:23:35.876Z,20.50
2019-05-20T11:26:02.614Z,18.00
2019-05-20T11:28:29.712Z,20.00
2019-05-20T11:30:56.420Z,17.87
2019-05-20T11:33:26.990Z,16.03
2019-05-20T11:35:57.459Z,17.07
2019-05-20T11:38:24.268Z,16.57
2019-05-20T11:40:51.220Z,15.93
2019-05-20T11:43:17.986Z,14.87
2019-05-20T11:45:44.703Z,15.03
2019-05-20T11:48:11.606Z,15.90
2019-05-20T11:50:38.462Z,15.73
2019-05-20T11:53:05.205Z,14.77
2019-05-20T11:55:32.018Z,14.57
2019-05-20T11:58:15.871Z,14.00
2019-05-20T12:00:35.768Z,13.70
2019-05-20T12:03:02.881Z,13.57
2019-05-20T12:05:31.687Z,14.57
2019-05-20T12:07:58.523Z,12.60
2019-05-20T12:10:25.571Z,11.53
2019-05-20T12:12:52.415Z,12.33
2019-05-20T12:15:19.108Z,11.43
2019-05-20T12:17:45.961Z,11.37
2019-05-20T12:20:15.853Z,11.33
2019-05-20T12:22:42.684Z,10.73
2019-05-20T12:25:09.429Z,11.30
2019-05-20T12:27:43.368Z,11.50
2019-05-20T12:30:10.987Z,13.17
2019-05-20T12:32:37.705Z,12.87
2019-05-20T12:35:05.524Z,14.30
2019-05-20T12:37:32.244Z,11.73
2019-05-20T12:40:07.053Z,11.57
2019-05-20T12:42:31.321Z,11.80
2019-05-20T12:44:58.048Z,13.80
2019-05-20T12:47:24.806Z,12.73
2019-05-20T12:49:52.068Z,11.50
2019-05-20T12:52:19.295Z,10.60
2019-05-20T12:54:46.026Z,9.40
2019-05-20T12:57:12.745Z,10.50
2019-05-20T12:59:39.476Z,10.40
2019-05-20T13:02:06.648Z,10.97
2019-05-20T13:04:37.222Z,9.43
2019-05-20T13:07:04.234Z,10.37
2019-05-20T13:09:31.011Z,11.97
2019-05-20T13:11:58.706Z,9.93
2019-05-20T13:14:25.445Z,11.40
2019-05-20T13:16:52.369Z,11.60
2019-05-20T13:19:19.152Z,10.40
2019-05-20T13:21:45.896Z,10.40
2019-05-20T13:24:12.624Z,10.57
2019-05-20T13:26:39.868Z,10.53
2019-05-20T13:29:06.624Z,10.80
2019-05-20T13:31:40.046Z,10.30
2019-05-20T13:34:06.834Z,10.30
2019-05-20T13:36:33.592Z,10.00
2019-05-20T13:39:00.553Z,10.43
2019-05-20T13:41:27.857Z,10.33
2019-05-20T13:43:54.582Z,10.13
2019-05-20T13:46:21.473Z,9.43
2019-05-20T13:48:48.571Z,9.97
2019-05-20T13:51:16.358Z,9.67
2019-05-20T13:53:44.700Z,9.67
2019-05-20T13:56:11.551Z,9.23
2019-05-20T13:58:39.952Z,10.07
2019-05-20T14:01:08.510Z,10.20
2019-05-20T14:03:35.276Z,9.97
2019-05-20T14:06:02.065Z,9.80
2019-05-20T14:08:29.300Z,9.53
2019-05-20T14:11:04.210Z,9.57
2019-05-20T14:13:25.350Z,9.80
2019-05-20T14:15:52.184Z,9.40
2019-05-20T14:18:18.971Z,9.13
2019-05-20T14:20:45.677Z,9.73
2019-05-20T14:23:12.556Z,9.37
2019-05-20T14:25:39.348Z,9.27
2019-05-20T14:28:06.096Z,9.40
2019-05-20T14:30:34.254Z,9.70
2019-05-20T14:33:01.142Z,8.30
2019-05-20T14:35:27.985Z,8.40
2019-05-20T14:37:54.744Z,8.50
2019-05-20T14:40:21.566Z,9.13
2019-05-20T14:42:48.346Z,11.63
2019-05-20T14:45:15.425Z,11.30
2019-05-20T14:47:42.179Z,11.47
2019-05-20T14:50:09.036Z,10.20
2019-05-20T14:52:36.047Z,10.37
2019-05-20T14:55:03.293Z,10.43
2019-05-20T14:57:30.259Z,11.00
2019-05-20T14:59:56.986Z,12.13
2019-05-20T15:02:30.767Z,11.63
2019-05-20T15:04:55.703Z,9.93
2019-05-20T15:07:29.794Z,9.50
2019-05-20T15:09:52.899Z,9.80
2019-05-20T15:12:19.895Z,9.20
2019-05-20T15:14:46.653Z,9.70
2019-05-20T15:17:13.383Z,9.70
2019-05-20T15:19:40.349Z,9.60
2019-05-20T15:22:08.002Z,9.50
2019-05-20T15:24:34.797Z,9.17
2019-05-20T15:27:02.309Z,9.30
2019-05-20T15:29:29.343Z,10.00
2019-05-20T15:32:00.590Z,10.90
2019-05-20T15:34:29.223Z,10.80
2019-05-20T15:36:56.012Z,10.10
2019-05-20T15:39:22.760Z,10.30
2019-05-20T15:41:49.446Z,10.17
2019-05-20T15:44:16.866Z,10.20
2019-05-20T15:46:44.088Z,11.37
2019-05-20T15:49:10.909Z,11.70
2019-05-20T15:51:37.681Z,10.97
2019-05-20T15:54:04.556Z,12.47
2019-05-20T15:56:31.277Z,12.47
2019-05-20T15:58:58.016Z,12.20
2019-05-20T16:01:27.471Z,15.60
2019-05-20T16:03:54.348Z,13.80
2019-05-20T16:06:21.509Z,13.80
2019-05-20T16:08:48.752Z,15.13
2019-05-20T16:11:15.613Z,14.70
2019-05-20T16:13:42.375Z,15.30
2019-05-20T16:16:12.813Z,15.37
2019-05-20T16:18:38.053Z,14.00
2019-05-20T16:21:04.788Z,13.83
2019-05-20T16:23:32.105Z,13.87
2019-05-20T16:25:59.120Z,13.70
2019-05-20T16:28:25.984Z,14.13
2019-05-20T16:30:56.509Z,13.03
2019-05-20T16:33:25.582Z,14.73
2019-05-20T16:35:52.314Z,15.23
2019-05-20T16:38:19.075Z,13.87
2019-05-20T16:40:45.805Z,13.60
2019-05-20T16:43:12.530Z,13.90
2019-05-20T16:45:39.641Z,15.03
2019-05-20T16:48:06.687Z,14.20
2019-05-20T16:50:33.474Z,14.40
2019-05-20T16:53:00.176Z,15.20
2019-05-20T16:55:26.896Z,15.57
2019-05-20T16:57:53.701Z,15.53
2019-05-20T17:00:31.541Z,14.00
2019-05-20T17:02:49.052Z,15.40
2019-05-20T17:05:15.849Z,16.23
2019-05-20T17:07:42.625Z,16.83
2019-05-20T17:10:09.478Z,16.60
2019-05-20T17:12:36.220Z,16.40
2019-05-20T17:15:03.038Z,15.83
2019-05-20T17:17:31.987Z,16.80
2019-05-20T17:19:58.729Z,16.90
2019-05-20T17:22:25.454Z,17.30
2019-05-20T17:24:52.212Z,15.10
2019-05-20T17:27:18.959Z,15.70
2019-05-20T17:29:45.676Z,15.93
2019-05-20T17:32:12.470Z,16.00
2019-05-20T17:34:39.837Z,17.07
2019-05-20T17:37:06.593Z,17.10
2019-05-20T17:39:33.414Z,17.63
2019-05-20T17:42:00.631Z,19.90
2019-05-20T17:44:27.619Z,17.77
2019-05-20T17:46:54.362Z,18.10
2019-05-20T17:49:21.451Z,20.70
2019-05-20T17:51:49.385Z,20.90
2019-05-20T17:54:16.435Z,19.03
2019-05-20T17:56:43.272Z,19.70
2019-05-20T17:59:10.058Z,19.03
2019-05-20T18:01:36.867Z,19.83
2019-05-20T18:04:03.945Z,19.90
2019-05-20T18:06:30.634Z,19.80
2019-05-20T18:08:59.670Z,20.43
2019-05-20T18:11:26.359Z,20.47
2019-05-20T18:13:56.336Z,20.37
2019-05-20T18:16:23.597Z,21.90
2019-05-20T18:18:50.352Z,20.80
2019-05-20T18:21:17.232Z,22.33
2019-05-20T18:23:44.016Z,20.73
2019-05-20T18:26:11.117Z,20.13
2019-05-20T18:28:37.929Z,20.00
2019-05-20T18:31:04.889Z,21.13
2019-05-20T18:33:31.988Z,20.93
2019-05-20T18:35:58.756Z,21.20
2019-05-20T18:38:25.894Z,21.27
2019-05-20T18:40:53.783Z,22.03
2019-05-20T18:43:20.820Z,21.93
2019-05-20T18:45:47.545Z,20.60
2019-05-20T18:48:14.388Z,20.70
2019-05-20T18:50:41.069Z,22.00
2019-05-20T18:53:07.817Z,21.10
2019-05-20T18:55:35.078Z,21.23
2019-05-20T18:58:01.912Z,22.13
2019-05-20T19:00:29.093Z,20.73
2019-05-20T19:02:55.832Z,20.60
2019-05-20T19:05:22.670Z,21.57
2019-05-20T19:07:52.369Z,20.60
2019-05-20T19:10:19.537Z,20.33
2019-05-20T19:12:48.359Z,20.40
2019-05-20T19:15:15.198Z,19.53
2019-05-20T19:17:42.010Z,19.67
2019-05-20T19:20:12.360Z,24.27
2019-05-20T19:22:39.070Z,29.67
2019-05-20T19:25:06.901Z,22.00
2019-05-20T19:27:34.022Z,21.07
2019-05-20T19:30:00.788Z,19.73
2019-05-20T19:32:27.863Z,19.77
2019-05-20T19:34:54.592Z,20.17
2019-05-20T19:37:21.724Z,21.57
2019-05-20T19:39:48.456Z,19.83
2019-05-20T19:42:15.242Z,22.00
2019-05-20T19:44:41.960Z,21.63
2019-05-20T19:47:08.856Z,23.20
2019-05-20T19:49:37.010Z,21.70
2019-05-20T19:52:03.765Z,20.87
2019-05-20T19:54:30.523Z,21.70
2019-05-20T19:56:58.553Z,20.63
2019-05-20T19:59:25.719Z,21.70
2019-05-20T20:01:52.573Z,21.27
2019-05-20T20:04:19.755Z,21.17
2019-05-20T20:06:46.506Z,22.50
2019-05-20T20:09:13.562Z,19.73
2019-05-20T20:11:42.244Z,21.13
2019-05-20T20:14:08.970Z,21.30
2019-05-20T20:16:36.063Z,21.53
2019-05-20T20:19:02.802Z,21.60
2019-05-20T20:21:29.536Z,20.80
2019-05-20T20:23:56.240Z,22.10
2019-05-20T20:26:25.848Z,21.60
2019-05-20T20:28:52.677Z,20.73
2019-05-20T20:31:19.798Z,21.13
2019-05-20T20:33:46.626Z,20.80
2019-05-20T20:36:13.340Z,22.20
2019-05-20T20:38:40.081Z,21.30
2019-05-20T20:41:07.130Z,20.70
2019-05-20T20:43:33.862Z,21.93
2019-05-20T20:46:03.751Z,21.70
2019-05-20T20:48:30.481Z,21.90
2019-05-20T20:50:57.260Z,21.43
2019-05-20T20:53:24.117Z,21.50
2019-05-20T20:55:51.512Z,23.10
2019-05-20T20:58:18.230Z,22.43
2019-05-20T21:00:45.186Z,23.83
2019-05-20T21:03:11.946Z,21.00
2019-05-20T21:05:38.700Z,22.70
2019-05-20T21:08:05.794Z,22.47
2019-05-20T21:10:32.617Z,23.50
2019-05-20T21:13:04.402Z,22.30
2019-05-20T21:15:33.906Z,22.37
2019-05-20T21:18:01.168Z,20.33
2019-05-20T21:20:27.999Z,21.10
2019-05-20T21:22:54.755Z,21.70
2019-05-20T21:25:21.585Z,20.07
2019-05-20T21:27:48.847Z,21.07
2019-05-20T21:30:15.614Z,22.17
2019-05-20T21:32:42.374Z,22.57
2019-05-20T21:35:09.155Z,23.53
2019-05-20T21:37:41.909Z,22.60
2019-05-20T21:40:09.160Z,23.77
2019-05-20T21:42:35.944Z,23.20
2019-05-20T21:45:03.538Z,22.20
2019-05-20T21:47:30.654Z,22.30
2019-05-20T21:49:57.918Z,22.07
2019-05-20T21:52:25.104Z,23.90
2019-05-20T21:54:51.950Z,22.00
2019-05-20T21:57:18.687Z,23.43
2019-05-20T21:59:45.593Z,22.07
2019-05-20T22:02:12.551Z,23.17
2019-05-20T22:04:39.475Z,21.43
2019-05-20T22:07:06.442Z,20.50
2019-05-20T22:09:33.311Z,22.53
2019-05-20T22:12:00.161Z,22.50
2019-05-20T22:14:27.456Z,21.37
2019-05-20T22:16:54.325Z,21.77
2019-05-20T22:19:21.106Z,23.53
2019-05-20T22:21:54.543Z,22.70
2019-05-20T22:24:21.312Z,21.87
2019-05-20T22:26:49.564Z,21.50
2019-05-20T22:29:16.320Z,22.20
2019-05-20T22:32:19.668Z,21.50
2019-05-20T22:34:53.639Z,22.10
2019-05-20T22:37:15.133Z,21.87
2019-05-20T22:39:41.896Z,20.80
2019-05-20T22:42:08.643Z,21.33
2019-05-20T22:44:35.759Z,18.47
2019-05-20T22:47:04.941Z,21.80
2019-05-20T22:49:32.005Z,20.60
2019-05-20T22:51:58.728Z,21.40
2019-05-20T22:54:25.475Z,21.03
2019-05-20T22:56:52.638Z,19.63
2019-05-20T22:59:19.389Z,18.97
2019-05-20T23:01:46.100Z,20.60
2019-05-20T23:04:13.744Z,18.30
2019-05-20T23:06:40.486Z,19.40
2019-05-20T23:09:09.517Z,19.73
2019-05-20T23:11:36.645Z,18.93
2019-05-20T23:14:03.929Z,19.17
2019-05-20T23:16:30.894Z,19.50
2019-05-20T23:18:57.717Z,18.00
2019-05-20T23:21:24.399Z,19.07
2019-05-20T23:23:52.714Z,18.60
2019-05-20T23:26:19.566Z,17.20
2019-05-20T23:28:46.315Z,18.10
2019-05-20T23:31:13.066Z,16.93
2019-05-20T23:33:39.834Z,17.43
2019-05-20T23:36:06.604Z,18.40
2019-05-20T23:38:33.348Z,17.97
2019-05-20T23:41:00.052Z,17.20
2019-05-20T23:43:26.897Z,18.93
2019-05-20T23:45:53.608Z,19.07
2019-05-20T23:48:20.386Z,19.40
2019-05-20T23:50:47.491Z,17.23
2019-05-20T23:53:14.281Z,19.47
2019-05-20T23:55:43.750Z,17.67
2019-05-20T23:58:10.682Z,17.90
